Carey — WDC3703 — position and weather

sailwx.info

Track history (hours):
 
Tides and Currents Weather Stations Pressure Air Temp Water Temp Dewpoint Dewpoint Depression Visibility Wind Speed Wind Dir Waves Ship Positions

Carey

Owner: Wilmington Tug, Inc, New Castle, DE. More information available from US FCC via Universal Licensing System and Coast Guard Vessel Documentation Center.

Last reported at 2018-Apr-21 00:00 UTC. Time now 2018-Apr-21 00:24 UTC.
Position N 39°40' W 075°32'.

Length 13 m; draft 2.3 m.

Type: Tug. MMSI: 367012690.

Date/timePositionNaut miles runAvg speedWind from/ knotsBaromVisibWave heightAir tempDewpointWater temp
2018-Apr-21 00:00N 39°40' W 075°32'4 8.2
2018-Apr-20 23:30N 39°37' W 075°34'4 8.5
2018-Apr-20 23:00N 39°33' W 075°32'3 1.4
2018-Apr-20 20:49N 39°30' W 075°33'2 7.4
2018-Apr-20 20:30N 39°32' W 075°33'3 6.2
2018-Apr-20 20:00N 39°35' W 075°35'2 3.1
2018-Apr-20 19:30N 39°36' W 075°36'4 8.3
2018-Apr-20 19:00N 39°40' W 075°33'4 6.8
2018-Apr-20 18:29N 39°43' W 075°31'  
2018-Apr-12 17:29N 39°43' W 075°31'3 6.8
2018-Apr-12 17:01N 39°40' W 075°32'4 8.0
2018-Apr-12 16:30N 39°36' W 075°34'3 6.5
2018-Apr-12 16:01N 39°33' W 075°32'2 4.6
2018-Apr-12 15:29N 39°35' W 075°29'0 0.1
2018-Apr-12 15:00N 39°35' W 075°29'3 5.0
2018-Apr-12 14:30N 39°33' W 075°32'2 4.6
2018-Apr-12 14:00N 39°31' W 075°33'4 7.1
2018-Apr-12 13:30N 39°34' W 075°30'2 4.4
2018-Apr-12 13:00N 39°33' W 075°32'3 6.9
2018-Apr-12 12:30N 39°36' W 075°34'4 7.9
2018-Apr-12 12:00N 39°40' W 075°32'3 6.9
2018-Apr-12 11:30N 39°43' W 075°31'0 0.0
2018-Apr-12 10:59N 39°43' W 075°31'  
Track history (hours):
 
Tides and Currents Weather Stations Pressure Air Temp Water Temp Dewpoint Dewpoint Depression Visibility Wind Speed Wind Dir Waves Ship Positions

Carey

Owner: Wilmington Tug, Inc, New Castle, DE. More information available from US FCC via Universal Licensing System and Coast Guard Vessel Documentation Center.

Last reported at 2018-Apr-21 00:00 UTC. Time now 2018-Apr-21 00:24 UTC.
Position N 39°40' W 075°32'.

Length 13 m; draft 2.3 m.

Type: Tug. MMSI: 367012690.

Date/timePositionNaut miles runAvg speedWind from/ knotsBaromVisibWave heightAir tempDewpointWater temp
2018-Apr-21 00:00N 39°40' W 075°32'4 8.2
2018-Apr-20 23:30N 39°37' W 075°34'4 8.5
2018-Apr-20 23:00N 39°33' W 075°32'3 1.4
2018-Apr-20 20:49N 39°30' W 075°33'2 7.4
2018-Apr-20 20:30N 39°32' W 075°33'3 6.2
2018-Apr-20 20:00N 39°35' W 075°35'2 3.1
2018-Apr-20 19:30N 39°36' W 075°36'4 8.3
2018-Apr-20 19:00N 39°40' W 075°33'4 6.8
2018-Apr-20 18:29N 39°43' W 075°31'  
2018-Apr-12 17:29N 39°43' W 075°31'3 6.8
2018-Apr-12 17:01N 39°40' W 075°32'4 8.0
2018-Apr-12 16:30N 39°36' W 075°34'3 6.5
2018-Apr-12 16:01N 39°33' W 075°32'2 4.6
2018-Apr-12 15:29N 39°35' W 075°29'0 0.1
2018-Apr-12 15:00N 39°35' W 075°29'3 5.0
2018-Apr-12 14:30N 39°33' W 075°32'2 4.6
2018-Apr-12 14:00N 39°31' W 075°33'4 7.1
2018-Apr-12 13:30N 39°34' W 075°30'2 4.4
2018-Apr-12 13:00N 39°33' W 075°32'3 6.9
2018-Apr-12 12:30N 39°36' W 075°34'4 7.9
2018-Apr-12 12:00N 39°40' W 075°32'3 6.9
2018-Apr-12 11:30N 39°43' W 075°31'0 0.0
2018-Apr-12 10:59N 39°43' W 075°31'  

Dump ship's entire track history